Albion, Indiana
Current Conditions -  °F | °C
As of 5:55 PM on Saturday 25 Oct 2014 (Local Time) from KGWB Reporting Station
Clear Clear  
Wind Chill: 18°   Ceiling: Unl
Heat Index: 18°   Visibility: 10mi
Dew Point:   Wind: 17mph
Humidity: 30%   Direction: 280°W
Pressure: 29.87"   Gusts: 23mph
Location:  41.4°N, 85.42°W
Report Text: KGWB 252155Z AUTO 28015G20KT 10SM CLR 18/00 A2987 RMK AO2
Loading
Personal Weather Stations






























Interactive Weather Map
Tropical Storm Tracking
New forecast layout! Learn more

10-Day Weather Forecast

Advertisements
Track Severe Weather on mobile